sensor_id;sensor_type;location;lat;lon;timestamp;P1;durP1;ratioP1;P2;durP2;ratioP2
65315;SDS011;51920;53.952;10.292;2022-08-27T00:01:02;47.70;;;21.77;;
65315;SDS011;51920;53.952;10.292;2022-08-27T00:03:27;46.03;;;21.73;;
65315;SDS011;51920;53.952;10.292;2022-08-27T00:05:52;49.73;;;22.47;;
65315;SDS011;51920;53.952;10.292;2022-08-27T00:08:18;45.60;;;22.03;;
65315;SDS011;51920;53.952;10.292;2022-08-27T00:10:43;47.93;;;21.13;;
65315;SDS011;51920;53.952;10.292;2022-08-27T00:13:08;49.90;;;23.10;;
65315;SDS011;51920;53.952;10.292;2022-08-27T00:15:34;52.03;;;22.52;;
65315;SDS011;51920;53.952;10.292;2022-08-27T00:18:00;53.93;;;22.90;;
65315;SDS011;51920;53.952;10.292;2022-08-27T00:20:26;43.30;;;20.40;;
65315;SDS011;51920;53.952;10.292;2022-08-27T00:22:52;46.10;;;19.70;;
65315;SDS011;51920;53.952;10.292;2022-08-27T00:25:18;45.05;;;19.73;;
65315;SDS011;51920;53.952;10.292;2022-08-27T00:27:44;46.83;;;21.33;;
65315;SDS011;51920;53.952;10.292;2022-08-27T00:30:10;47.78;;;20.63;;
65315;SDS011;51920;53.952;10.292;2022-08-27T00:32:38;48.53;;;21.10;;
65315;SDS011;51920;53.952;10.292;2022-08-27T00:35:05;46.20;;;20.52;;
65315;SDS011;51920;53.952;10.292;2022-08-27T00:37:31;53.97;;;21.52;;
65315;SDS011;51920;53.952;10.292;2022-08-27T00:39:57;56.30;;;22.63;;
65315;SDS011;51920;53.952;10.292;2022-08-27T00:42:22;57.83;;;22.57;;
65315;SDS011;51920;53.952;10.292;2022-08-27T00:44:48;55.90;;;22.73;;
65315;SDS011;51920;53.952;10.292;2022-08-27T00:47:23;56.00;;;22.57;;
65315;SDS011;51920;53.952;10.292;2022-08-27T00:50:24;58.35;;;23.58;;
65315;SDS011;51920;53.952;10.292;2022-08-27T00:52:53;55.08;;;22.10;;
65315;SDS011;51920;53.952;10.292;2022-08-27T00:55:25;59.67;;;22.55;;
65315;SDS011;51920;53.952;10.292;2022-08-27T00:58:05;65.82;;;23.13;;
65315;SDS011;51920;53.952;10.292;2022-08-27T01:00:34;59.77;;;22.57;;
65315;SDS011;51920;53.952;10.292;2022-08-27T01:03:00;57.67;;;22.40;;
65315;SDS011;51920;53.952;10.292;2022-08-27T01:05:25;47.37;;;20.73;;
65315;SDS011;51920;53.952;10.292;2022-08-27T01:07:57;58.20;;;22.00;;
65315;SDS011;51920;53.952;10.292;2022-08-27T01:10:26;59.05;;;21.63;;
65315;SDS011;51920;53.952;10.292;2022-08-27T01:12:53;58.00;;;22.75;;
65315;SDS011;51920;53.952;10.292;2022-08-27T01:15:21;59.23;;;23.03;;
65315;SDS011;51920;53.952;10.292;2022-08-27T01:17:49;61.00;;;21.67;;
65315;SDS011;51920;53.952;10.292;2022-08-27T01:20:20;54.95;;;21.85;;
65315;SDS011;51920;53.952;10.292;2022-08-27T01:25:23;59.33;;;21.17;;
65315;SDS011;51920;53.952;10.292;2022-08-27T01:27:49;56.72;;;21.73;;
65315;SDS011;51920;53.952;10.292;2022-08-27T01:30:17;58.25;;;22.33;;
65315;SDS011;51920;53.952;10.292;2022-08-27T01:32:44;56.63;;;21.95;;
65315;SDS011;51920;53.952;10.292;2022-08-27T01:35:11;64.18;;;23.33;;
65315;SDS011;51920;53.952;10.292;2022-08-27T01:37:38;63.97;;;22.73;;
65315;SDS011;51920;53.952;10.292;2022-08-27T01:40:04;57.63;;;21.83;;
65315;SDS011;51920;53.952;10.292;2022-08-27T01:42:34;60.97;;;22.42;;
65315;SDS011;51920;53.952;10.292;2022-08-27T01:47:39;58.83;;;21.40;;
65315;SDS011;51920;53.952;10.292;2022-08-27T01:50:09;63.50;;;23.75;;
65315;SDS011;51920;53.952;10.292;2022-08-27T01:53:47;60.90;;;22.08;;
65315;SDS011;51920;53.952;10.292;2022-08-27T01:56:02;62.75;;;22.05;;
65315;SDS011;51920;53.952;10.292;2022-08-27T01:58:42;61.03;;;21.77;;
65315;SDS011;51920;53.952;10.292;2022-08-27T02:01:10;64.78;;;22.88;;
65315;SDS011;51920;53.952;10.292;2022-08-27T02:03:38;56.65;;;22.20;;
65315;SDS011;51920;53.952;10.292;2022-08-27T02:06:05;62.60;;;22.45;;
65315;SDS011;51920;53.952;10.292;2022-08-27T02:08:36;59.47;;;22.30;;
65315;SDS011;51920;53.952;10.292;2022-08-27T02:11:02;60.13;;;22.33;;
65315;SDS011;51920;53.952;10.292;2022-08-27T02:13:29;59.33;;;22.70;;
65315;SDS011;51920;53.952;10.292;2022-08-27T02:15:54;65.17;;;23.50;;
65315;SDS011;51920;53.952;10.292;2022-08-27T02:18:20;66.68;;;23.92;;
65315;SDS011;51920;53.952;10.292;2022-08-27T02:20:45;62.70;;;22.43;;
65315;SDS011;51920;53.952;10.292;2022-08-27T02:23:12;64.15;;;22.65;;
65315;SDS011;51920;53.952;10.292;2022-08-27T02:25:38;57.55;;;22.15;;
65315;SDS011;51920;53.952;10.292;2022-08-27T02:28:06;54.57;;;21.23;;
65315;SDS011;51920;53.952;10.292;2022-08-27T02:30:32;61.55;;;22.48;;
65315;SDS011;51920;53.952;10.292;2022-08-27T02:32:59;66.70;;;23.55;;
65315;SDS011;51920;53.952;10.292;2022-08-27T02:35:27;62.90;;;22.15;;
65315;SDS011;51920;53.952;10.292;2022-08-27T02:37:53;69.53;;;22.48;;
65315;SDS011;51920;53.952;10.292;2022-08-27T02:40:20;59.63;;;23.03;;
65315;SDS011;51920;53.952;10.292;2022-08-27T02:42:47;65.90;;;23.20;;
65315;SDS011;51920;53.952;10.292;2022-08-27T02:45:13;55.00;;;21.77;;
65315;SDS011;51920;53.952;10.292;2022-08-27T02:47:39;61.78;;;23.10;;
65315;SDS011;51920;53.952;10.292;2022-08-27T02:50:05;58.97;;;21.77;;
65315;SDS011;51920;53.952;10.292;2022-08-27T02:52:31;58.60;;;21.70;;
65315;SDS011;51920;53.952;10.292;2022-08-27T02:54:57;58.37;;;21.07;;
65315;SDS011;51920;53.952;10.292;2022-08-27T02:57:23;61.60;;;20.58;;
65315;SDS011;51920;53.952;10.292;2022-08-27T02:59:49;58.90;;;21.08;;
65315;SDS011;51920;53.952;10.292;2022-08-27T03:02:15;57.38;;;20.55;;
65315;SDS011;51920;53.952;10.292;2022-08-27T03:04:41;58.30;;;20.87;;
65315;SDS011;51920;53.952;10.292;2022-08-27T03:07:07;62.10;;;21.67;;
65315;SDS011;51920;53.952;10.292;2022-08-27T03:09:32;59.47;;;20.87;;
65315;SDS011;51920;53.952;10.292;2022-08-27T03:11:58;57.72;;;20.70;;
65315;SDS011;51920;53.952;10.292;2022-08-27T03:14:24;54.00;;;20.17;;
65315;SDS011;51920;53.952;10.292;2022-08-27T03:16:50;55.47;;;20.20;;
65315;SDS011;51920;53.952;10.292;2022-08-27T03:19:15;56.40;;;20.00;;
65315;SDS011;51920;53.952;10.292;2022-08-27T03:21:41;54.50;;;20.17;;
65315;SDS011;51920;53.952;10.292;2022-08-27T03:24:06;55.63;;;20.77;;
65315;SDS011;51920;53.952;10.292;2022-08-27T03:26:32;56.42;;;20.83;;
65315;SDS011;51920;53.952;10.292;2022-08-27T03:28:57;51.50;;;20.63;;
65315;SDS011;51920;53.952;10.292;2022-08-27T03:31:24;58.70;;;21.13;;
65315;SDS011;51920;53.952;10.292;2022-08-27T03:33:58;54.95;;;20.63;;
65315;SDS011;51920;53.952;10.292;2022-08-27T03:36:26;57.08;;;20.50;;
65315;SDS011;51920;53.952;10.292;2022-08-27T03:38:53;57.63;;;20.85;;
65315;SDS011;51920;53.952;10.292;2022-08-27T03:41:19;55.67;;;20.70;;
65315;SDS011;51920;53.952;10.292;2022-08-27T03:43:44;57.23;;;20.13;;
65315;SDS011;51920;53.952;10.292;2022-08-27T03:46:10;51.22;;;20.15;;
65315;SDS011;51920;53.952;10.292;2022-08-27T03:48:36;53.77;;;20.37;;
65315;SDS011;51920;53.952;10.292;2022-08-27T03:51:05;53.38;;;19.90;;
65315;SDS011;51920;53.952;10.292;2022-08-27T03:53:33;56.33;;;19.33;;
65315;SDS011;51920;53.952;10.292;2022-08-27T03:55:59;50.40;;;18.93;;
65315;SDS011;51920;53.952;10.292;2022-08-27T03:58:25;49.92;;;18.60;;
65315;SDS011;51920;53.952;10.292;2022-08-27T04:00:51;45.67;;;18.07;;
65315;SDS011;51920;53.952;10.292;2022-08-27T04:03:16;44.28;;;18.25;;
65315;SDS011;51920;53.952;10.292;2022-08-27T04:05:42;47.47;;;18.07;;
65315;SDS011;51920;53.952;10.292;2022-08-27T04:08:08;43.27;;;17.40;;
65315;SDS011;51920;53.952;10.292;2022-08-27T04:10:34;44.42;;;17.30;;
65315;SDS011;51920;53.952;10.292;2022-08-27T04:12:59;44.53;;;17.20;;
65315;SDS011;51920;53.952;10.292;2022-08-27T04:15:25;43.70;;;17.70;;
65315;SDS011;51920;53.952;10.292;2022-08-27T04:17:50;45.38;;;17.02;;
65315;SDS011;51920;53.952;10.292;2022-08-27T04:20:16;41.70;;;16.80;;
65315;SDS011;51920;53.952;10.292;2022-08-27T04:22:41;47.50;;;17.23;;
65315;SDS011;51920;53.952;10.292;2022-08-27T04:25:07;56.10;;;18.30;;
65315;SDS011;51920;53.952;10.292;2022-08-27T04:27:33;55.70;;;17.55;;
65315;SDS011;51920;53.952;10.292;2022-08-27T04:29:59;48.93;;;17.93;;
65315;SDS011;51920;53.952;10.292;2022-08-27T04:32:25;49.97;;;18.25;;
65315;SDS011;51920;53.952;10.292;2022-08-27T04:34:56;42.78;;;16.55;;
65315;SDS011;51920;53.952;10.292;2022-08-27T04:37:23;43.60;;;16.10;;
65315;SDS011;51920;53.952;10.292;2022-08-27T04:39:49;48.03;;;17.90;;
65315;SDS011;51920;53.952;10.292;2022-08-27T04:42:16;44.03;;;16.48;;
65315;SDS011;51920;53.952;10.292;2022-08-27T04:44:42;43.70;;;15.98;;
65315;SDS011;51920;53.952;10.292;2022-08-27T04:47:08;42.20;;;15.90;;
65315;SDS011;51920;53.952;10.292;2022-08-27T04:49:34;47.33;;;17.33;;
65315;SDS011;51920;53.952;10.292;2022-08-27T04:52:00;43.63;;;15.23;;
65315;SDS011;51920;53.952;10.292;2022-08-27T04:54:27;44.40;;;15.95;;
65315;SDS011;51920;53.952;10.292;2022-08-27T04:56:52;39.42;;;15.27;;
65315;SDS011;51920;53.952;10.292;2022-08-27T04:59:18;42.57;;;15.53;;
65315;SDS011;51920;53.952;10.292;2022-08-27T05:01:43;39.10;;;15.63;;
65315;SDS011;51920;53.952;10.292;2022-08-27T05:04:10;40.97;;;15.40;;
65315;SDS011;51920;53.952;10.292;2022-08-27T05:06:38;47.53;;;16.20;;
65315;SDS011;51920;53.952;10.292;2022-08-27T05:09:04;40.10;;;15.17;;
65315;SDS011;51920;53.952;10.292;2022-08-27T05:11:30;37.55;;;14.60;;
65315;SDS011;51920;53.952;10.292;2022-08-27T05:14:00;38.65;;;14.40;;
65315;SDS011;51920;53.952;10.292;2022-08-27T05:16:28;39.77;;;14.33;;
65315;SDS011;51920;53.952;10.292;2022-08-27T05:18:53;34.85;;;14.23;;
65315;SDS011;51920;53.952;10.292;2022-08-27T05:21:23;39.00;;;14.07;;
65315;SDS011;51920;53.952;10.292;2022-08-27T05:23:50;41.83;;;14.43;;
65315;SDS011;51920;53.952;10.292;2022-08-27T05:26:16;39.30;;;14.70;;
65315;SDS011;51920;53.952;10.292;2022-08-27T05:28:42;34.42;;;13.27;;
65315;SDS011;51920;53.952;10.292;2022-08-27T05:31:08;31.53;;;12.23;;
65315;SDS011;51920;53.952;10.292;2022-08-27T05:33:36;34.37;;;12.93;;
65315;SDS011;51920;53.952;10.292;2022-08-27T05:36:05;33.78;;;13.05;;
65315;SDS011;51920;53.952;10.292;2022-08-27T05:38:31;33.88;;;13.35;;
65315;SDS011;51920;53.952;10.292;2022-08-27T05:41:17;33.00;;;13.02;;
65315;SDS011;51920;53.952;10.292;2022-08-27T05:43:44;31.10;;;12.68;;
65315;SDS011;51920;53.952;10.292;2022-08-27T05:46:11;31.67;;;12.87;;
65315;SDS011;51920;53.952;10.292;2022-08-27T05:48:38;33.50;;;12.77;;
65315;SDS011;51920;53.952;10.292;2022-08-27T05:51:09;35.30;;;13.18;;
65315;SDS011;51920;53.952;10.292;2022-08-27T05:53:35;32.88;;;12.68;;
65315;SDS011;51920;53.952;10.292;2022-08-27T05:56:00;31.33;;;12.20;;
65315;SDS011;51920;53.952;10.292;2022-08-27T05:58:28;30.08;;;12.00;;
65315;SDS011;51920;53.952;10.292;2022-08-27T06:01:12;31.30;;;12.20;;
65315;SDS011;51920;53.952;10.292;2022-08-27T06:03:38;30.33;;;11.77;;
65315;SDS011;51920;53.952;10.292;2022-08-27T06:06:08;31.42;;;12.27;;
65315;SDS011;51920;53.952;10.292;2022-08-27T06:08:35;30.15;;;12.30;;
65315;SDS011;51920;53.952;10.292;2022-08-27T06:11:02;30.13;;;12.02;;
65315;SDS011;51920;53.952;10.292;2022-08-27T06:13:30;28.30;;;11.53;;
65315;SDS011;51920;53.952;10.292;2022-08-27T06:16:01;28.27;;;11.98;;
65315;SDS011;51920;53.952;10.292;2022-08-27T06:18:27;30.92;;;12.05;;
65315;SDS011;51920;53.952;10.292;2022-08-27T06:20:52;29.47;;;11.63;;
65315;SDS011;51920;53.952;10.292;2022-08-27T06:23:18;30.92;;;12.13;;
65315;SDS011;51920;53.952;10.292;2022-08-27T06:25:44;32.65;;;12.70;;
65315;SDS011;51920;53.952;10.292;2022-08-27T06:28:11;33.90;;;12.73;;
65315;SDS011;51920;53.952;10.292;2022-08-27T06:30:37;33.47;;;12.60;;
65315;SDS011;51920;53.952;10.292;2022-08-27T06:33:03;29.50;;;11.98;;
65315;SDS011;51920;53.952;10.292;2022-08-27T06:35:28;33.20;;;13.43;;
65315;SDS011;51920;53.952;10.292;2022-08-27T06:37:54;31.73;;;13.07;;
65315;SDS011;51920;53.952;10.292;2022-08-27T06:40:19;29.37;;;11.63;;
65315;SDS011;51920;53.952;10.292;2022-08-27T06:42:45;34.27;;;12.63;;
65315;SDS011;51920;53.952;10.292;2022-08-27T06:45:10;36.17;;;12.97;;
65315;SDS011;51920;53.952;10.292;2022-08-27T06:47:36;35.67;;;13.10;;
65315;SDS011;51920;53.952;10.292;2022-08-27T06:50:02;36.63;;;12.77;;
65315;SDS011;51920;53.952;10.292;2022-08-27T06:52:27;30.75;;;12.30;;
65315;SDS011;51920;53.952;10.292;2022-08-27T06:54:53;28.80;;;13.03;;
65315;SDS011;51920;53.952;10.292;2022-08-27T06:57:18;29.90;;;12.30;;
65315;SDS011;51920;53.952;10.292;2022-08-27T06:59:44;29.17;;;11.80;;
65315;SDS011;51920;53.952;10.292;2022-08-27T07:02:09;32.78;;;12.55;;
65315;SDS011;51920;53.952;10.292;2022-08-27T07:04:35;32.43;;;12.83;;
65315;SDS011;51920;53.952;10.292;2022-08-27T07:07:01;32.78;;;12.98;;
65315;SDS011;51920;53.952;10.292;2022-08-27T07:09:27;34.83;;;13.98;;
65315;SDS011;51920;53.952;10.292;2022-08-27T07:11:56;33.38;;;13.38;;
65315;SDS011;51920;53.952;10.292;2022-08-27T07:14:21;35.07;;;14.20;;
65315;SDS011;51920;53.952;10.292;2022-08-27T07:16:47;38.33;;;14.10;;
65315;SDS011;51920;53.952;10.292;2022-08-27T07:19:14;32.73;;;12.20;;
65315;SDS011;51920;53.952;10.292;2022-08-27T07:21:40;36.85;;;13.32;;
65315;SDS011;51920;53.952;10.292;2022-08-27T07:24:05;32.97;;;12.37;;
65315;SDS011;51920;53.952;10.292;2022-08-27T07:26:33;31.25;;;12.23;;
65315;SDS011;51920;53.952;10.292;2022-08-27T07:29:02;32.37;;;12.33;;
65315;SDS011;51920;53.952;10.292;2022-08-27T07:31:29;35.85;;;12.30;;
65315;SDS011;51920;53.952;10.292;2022-08-27T07:33:55;27.17;;;11.05;;
65315;SDS011;51920;53.952;10.292;2022-08-27T07:36:20;25.03;;;10.33;;
65315;SDS011;51920;53.952;10.292;2022-08-27T07:38:47;22.65;;;10.55;;
65315;SDS011;51920;53.952;10.292;2022-08-27T07:41:13;22.92;;;10.13;;
65315;SDS011;51920;53.952;10.292;2022-08-27T07:43:39;18.67;;;9.60;;
65315;SDS011;51920;53.952;10.292;2022-08-27T07:46:23;27.27;;;11.02;;
65315;SDS011;51920;53.952;10.292;2022-08-27T07:48:49;26.95;;;11.07;;
65315;SDS011;51920;53.952;10.292;2022-08-27T07:51:16;26.70;;;11.25;;
65315;SDS011;51920;53.952;10.292;2022-08-27T07:53:44;28.88;;;11.00;;
65315;SDS011;51920;53.952;10.292;2022-08-27T07:56:11;30.60;;;12.30;;
65315;SDS011;51920;53.952;10.292;2022-08-27T07:58:37;26.35;;;11.23;;
65315;SDS011;51920;53.952;10.292;2022-08-27T08:01:02;29.85;;;11.23;;
65315;SDS011;51920;53.952;10.292;2022-08-27T08:03:28;27.17;;;11.00;;
65315;SDS011;51920;53.952;10.292;2022-08-27T08:05:54;29.00;;;11.33;;
65315;SDS011;51920;53.952;10.292;2022-08-27T08:08:22;27.67;;;11.30;;
65315;SDS011;51920;53.952;10.292;2022-08-27T08:10:48;26.52;;;11.85;;
65315;SDS011;51920;53.952;10.292;2022-08-27T08:13:14;26.73;;;12.07;;
65315;SDS011;51920;53.952;10.292;2022-08-27T08:15:45;29.52;;;11.93;;
65315;SDS011;51920;53.952;10.292;2022-08-27T08:18:11;28.90;;;11.80;;
65315;SDS011;51920;53.952;10.292;2022-08-27T08:20:37;28.20;;;12.27;;
65315;SDS011;51920;53.952;10.292;2022-08-27T08:23:03;30.00;;;11.65;;
65315;SDS011;51920;53.952;10.292;2022-08-27T08:25:29;30.80;;;11.93;;
65315;SDS011;51920;53.952;10.292;2022-08-27T08:27:54;26.83;;;11.90;;
65315;SDS011;51920;53.952;10.292;2022-08-27T08:30:20;25.10;;;11.67;;
65315;SDS011;51920;53.952;10.292;2022-08-27T08:32:46;28.23;;;11.32;;
65315;SDS011;51920;53.952;10.292;2022-08-27T08:35:12;29.13;;;11.13;;
65315;SDS011;51920;53.952;10.292;2022-08-27T08:37:37;28.23;;;10.77;;
65315;SDS011;51920;53.952;10.292;2022-08-27T08:40:04;25.37;;;10.80;;
65315;SDS011;51920;53.952;10.292;2022-08-27T08:42:32;21.95;;;10.00;;
65315;SDS011;51920;53.952;10.292;2022-08-27T08:45:03;21.03;;;10.53;;
65315;SDS011;51920;53.952;10.292;2022-08-27T08:47:41;24.25;;;10.27;;
65315;SDS011;51920;53.952;10.292;2022-08-27T08:53:20;20.85;;;9.10;;
65315;SDS011;51920;53.952;10.292;2022-08-27T08:55:54;13.82;;;8.02;;
65315;SDS011;51920;53.952;10.292;2022-08-27T08:58:36;17.93;;;8.30;;
65315;SDS011;51920;53.952;10.292;2022-08-27T09:01:04;16.00;;;8.02;;
65315;SDS011;51920;53.952;10.292;2022-08-27T09:03:32;15.52;;;8.00;;
65315;SDS011;51920;53.952;10.292;2022-08-27T09:08:31;15.43;;;7.28;;
65315;SDS011;51920;53.952;10.292;2022-08-27T09:13:55;14.57;;;7.63;;
65315;SDS011;51920;53.952;10.292;2022-08-27T09:16:24;13.32;;;7.25;;
65315;SDS011;51920;53.952;10.292;2022-08-27T09:18:49;16.92;;;7.63;;
65315;SDS011;51920;53.952;10.292;2022-08-27T09:21:30;14.38;;;7.20;;
65315;SDS011;51920;53.952;10.292;2022-08-27T09:24:22;15.63;;;7.40;;
65315;SDS011;51920;53.952;10.292;2022-08-27T09:27:00;13.10;;;7.05;;
65315;SDS011;51920;53.952;10.292;2022-08-27T09:29:27;14.63;;;6.90;;
65315;SDS011;51920;53.952;10.292;2022-08-27T09:32:04;17.00;;;6.90;;
65315;SDS011;51920;53.952;10.292;2022-08-27T09:34:36;14.90;;;7.70;;
65315;SDS011;51920;53.952;10.292;2022-08-27T09:37:11;14.15;;;6.70;;
65315;SDS011;51920;53.952;10.292;2022-08-27T09:39:42;12.40;;;6.57;;
65315;SDS011;51920;53.952;10.292;2022-08-27T09:45:11;13.80;;;6.63;;
65315;SDS011;51920;53.952;10.292;2022-08-27T09:47:43;12.90;;;6.33;;
65315;SDS011;51920;53.952;10.292;2022-08-27T09:50:13;15.45;;;6.75;;
65315;SDS011;51920;53.952;10.292;2022-08-27T09:55:44;12.43;;;6.30;;
65315;SDS011;51920;53.952;10.292;2022-08-27T09:58:19;12.30;;;6.40;;
65315;SDS011;51920;53.952;10.292;2022-08-27T10:00:48;10.40;;;6.10;;
65315;SDS011;51920;53.952;10.292;2022-08-27T10:03:21;11.10;;;5.72;;
65315;SDS011;51920;53.952;10.292;2022-08-27T10:05:47;11.10;;;5.77;;
65315;SDS011;51920;53.952;10.292;2022-08-27T10:11:14;10.75;;;5.47;;
65315;SDS011;51920;53.952;10.292;2022-08-27T10:14:00;10.90;;;5.65;;
65315;SDS011;51920;53.952;10.292;2022-08-27T10:16:44;12.25;;;5.43;;
65315;SDS011;51920;53.952;10.292;2022-08-27T10:28:12;11.80;;;5.05;;
65315;SDS011;51920;53.952;10.292;2022-08-27T10:42:09;8.98;;;5.38;;
65315;SDS011;51920;53.952;10.292;2022-08-27T10:52:50;14.60;;;6.18;;
65315;SDS011;51920;53.952;10.292;2022-08-27T10:55:21;13.02;;;6.60;;
65315;SDS011;51920;53.952;10.292;2022-08-27T11:03:36;10.40;;;6.20;;
65315;SDS011;51920;53.952;10.292;2022-08-27T11:09:21;13.52;;;6.80;;
65315;SDS011;51920;53.952;10.292;2022-08-27T11:12:09;13.85;;;6.50;;
65315;SDS011;51920;53.952;10.292;2022-08-27T11:20:19;12.32;;;6.70;;
65315;SDS011;51920;53.952;10.292;2022-08-27T11:25:37;14.50;;;8.77;;
65315;SDS011;51920;53.952;10.292;2022-08-27T11:28:21;13.30;;;6.30;;
65315;SDS011;51920;53.952;10.292;2022-08-27T11:31:02;13.20;;;6.07;;
65315;SDS011;51920;53.952;10.292;2022-08-27T11:45:19;12.52;;;5.25;;
65315;SDS011;51920;53.952;10.292;2022-08-27T11:47:57;11.48;;;4.90;;
65315;SDS011;51920;53.952;10.292;2022-08-27T11:50:25;14.30;;;5.35;;
65315;SDS011;51920;53.952;10.292;2022-08-27T11:52:57;11.70;;;5.40;;
65315;SDS011;51920;53.952;10.292;2022-08-27T12:00:42;10.95;;;5.75;;
65315;SDS011;51920;53.952;10.292;2022-08-27T12:05:45;8.52;;;4.93;;
65315;SDS011;51920;53.952;10.292;2022-08-27T12:24:41;8.93;;;4.40;;
65315;SDS011;51920;53.952;10.292;2022-08-27T12:27:24;7.60;;;4.28;;
65315;SDS011;51920;53.952;10.292;2022-08-27T12:32:45;6.68;;;4.30;;
65315;SDS011;51920;53.952;10.292;2022-08-27T12:37:47;7.18;;;4.22;;
65315;SDS011;51920;53.952;10.292;2022-08-27T12:40:18;7.60;;;3.92;;
65315;SDS011;51920;53.952;10.292;2022-08-27T12:42:47;6.03;;;3.95;;
65315;SDS011;51920;53.952;10.292;2022-08-27T12:45:23;6.10;;;3.78;;
65315;SDS011;51920;53.952;10.292;2022-08-27T12:47:51;6.70;;;4.00;;
65315;SDS011;51920;53.952;10.292;2022-08-27T12:50:22;8.98;;;3.97;;
65315;SDS011;51920;53.952;10.292;2022-08-27T12:52:57;7.50;;;3.88;;
65315;SDS011;51920;53.952;10.292;2022-08-27T13:03:29;7.97;;;3.30;;
65315;SDS011;51920;53.952;10.292;2022-08-27T13:06:01;8.65;;;3.30;;
65315;SDS011;51920;53.952;10.292;2022-08-27T13:08:59;7.10;;;3.17;;
65315;SDS011;51920;53.952;10.292;2022-08-27T13:12:13;8.40;;;3.47;;
65315;SDS011;51920;53.952;10.292;2022-08-27T13:14:21;6.60;;;2.85;;
65315;SDS011;51920;53.952;10.292;2022-08-27T13:16:50;9.17;;;2.90;;
65315;SDS011;51920;53.952;10.292;2022-08-27T13:19:29;7.15;;;2.90;;
65315;SDS011;51920;53.952;10.292;2022-08-27T13:21:57;7.22;;;2.90;;
65315;SDS011;51920;53.952;10.292;2022-08-27T13:24:28;7.95;;;2.65;;
65315;SDS011;51920;53.952;10.292;2022-08-27T13:26:56;8.65;;;2.80;;
65315;SDS011;51920;53.952;10.292;2022-08-27T13:29:23;7.43;;;2.60;;
65315;SDS011;51920;53.952;10.292;2022-08-27T13:31:49;6.80;;;2.65;;
65315;SDS011;51920;53.952;10.292;2022-08-27T13:34:20;6.47;;;2.35;;
65315;SDS011;51920;53.952;10.292;2022-08-27T13:39:28;5.93;;;2.67;;
65315;SDS011;51920;53.952;10.292;2022-08-27T13:41:56;7.63;;;2.43;;
65315;SDS011;51920;53.952;10.292;2022-08-27T13:44:29;8.52;;;2.30;;
65315;SDS011;51920;53.952;10.292;2022-08-27T13:47:02;8.55;;;2.15;;
65315;SDS011;51920;53.952;10.292;2022-08-27T13:49:30;5.72;;;2.33;;
65315;SDS011;51920;53.952;10.292;2022-08-27T13:51:59;7.30;;;2.13;;
65315;SDS011;51920;53.952;10.292;2022-08-27T13:54:29;4.50;;;1.97;;
65315;SDS011;51920;53.952;10.292;2022-08-27T13:56:58;7.55;;;1.77;;
65315;SDS011;51920;53.952;10.292;2022-08-27T13:59:32;6.70;;;2.00;;
65315;SDS011;51920;53.952;10.292;2022-08-27T14:02:14;6.45;;;1.98;;
65315;SDS011;51920;53.952;10.292;2022-08-27T14:05:02;5.63;;;2.22;;
65315;SDS011;51920;53.952;10.292;2022-08-27T14:07:46;4.63;;;2.10;;
65315;SDS011;51920;53.952;10.292;2022-08-27T14:12:42;6.22;;;1.90;;
65315;SDS011;51920;53.952;10.292;2022-08-27T14:17:47;6.40;;;1.70;;
65315;SDS011;51920;53.952;10.292;2022-08-27T14:20:13;6.63;;;1.90;;
65315;SDS011;51920;53.952;10.292;2022-08-27T14:22:41;4.03;;;1.60;;
65315;SDS011;51920;53.952;10.292;2022-08-27T14:25:07;6.65;;;1.60;;
65315;SDS011;51920;53.952;10.292;2022-08-27T14:27:34;9.90;;;2.10;;
65315;SDS011;51920;53.952;10.292;2022-08-27T14:30:01;4.83;;;1.60;;
65315;SDS011;51920;53.952;10.292;2022-08-27T14:32:28;5.22;;;1.65;;
65315;SDS011;51920;53.952;10.292;2022-08-27T14:34:53;8.03;;;2.00;;
65315;SDS011;51920;53.952;10.292;2022-08-27T14:37:18;4.53;;;1.83;;
65315;SDS011;51920;53.952;10.292;2022-08-27T14:39:44;5.85;;;1.63;;
65315;SDS011;51920;53.952;10.292;2022-08-27T14:42:09;5.87;;;1.93;;
65315;SDS011;51920;53.952;10.292;2022-08-27T14:44:35;6.00;;;1.80;;
65315;SDS011;51920;53.952;10.292;2022-08-27T14:47:01;4.43;;;1.40;;
65315;SDS011;51920;53.952;10.292;2022-08-27T14:49:29;5.18;;;1.60;;
65315;SDS011;51920;53.952;10.292;2022-08-27T14:51:58;5.68;;;1.42;;
65315;SDS011;51920;53.952;10.292;2022-08-27T14:54:24;6.93;;;1.50;;
65315;SDS011;51920;53.952;10.292;2022-08-27T14:56:49;7.43;;;1.50;;
65315;SDS011;51920;53.952;10.292;2022-08-27T14:59:14;4.73;;;1.57;;
65315;SDS011;51920;53.952;10.292;2022-08-27T15:01:41;5.70;;;1.40;;
65315;SDS011;51920;53.952;10.292;2022-08-27T15:04:06;6.83;;;3.87;;
65315;SDS011;51920;53.952;10.292;2022-08-27T15:06:32;6.90;;;1.80;;
65315;SDS011;51920;53.952;10.292;2022-08-27T15:08:57;5.63;;;1.50;;
65315;SDS011;51920;53.952;10.292;2022-08-27T15:11:24;6.17;;;1.50;;
65315;SDS011;51920;53.952;10.292;2022-08-27T15:13:52;4.93;;;1.42;;
65315;SDS011;51920;53.952;10.292;2022-08-27T15:16:37;5.13;;;1.35;;
65315;SDS011;51920;53.952;10.292;2022-08-27T15:19:05;5.68;;;1.40;;
65315;SDS011;51920;53.952;10.292;2022-08-27T15:21:32;4.17;;;1.60;;
65315;SDS011;51920;53.952;10.292;2022-08-27T15:24:00;7.80;;;1.70;;
65315;SDS011;51920;53.952;10.292;2022-08-27T15:26:29;5.57;;;1.50;;
65315;SDS011;51920;53.952;10.292;2022-08-27T15:28:54;8.02;;;1.65;;
65315;SDS011;51920;53.952;10.292;2022-08-27T15:31:20;4.93;;;1.47;;
65315;SDS011;51920;53.952;10.292;2022-08-27T15:33:46;5.20;;;1.52;;
65315;SDS011;51920;53.952;10.292;2022-08-27T15:36:11;6.77;;;1.60;;
65315;SDS011;51920;53.952;10.292;2022-08-27T15:38:37;5.93;;;1.30;;
65315;SDS011;51920;53.952;10.292;2022-08-27T15:41:03;7.65;;;1.38;;
65315;SDS011;51920;53.952;10.292;2022-08-27T15:43:29;4.47;;;1.40;;
65315;SDS011;51920;53.952;10.292;2022-08-27T15:45:55;3.00;;;1.25;;
65315;SDS011;51920;53.952;10.292;2022-08-27T15:48:20;5.00;;;1.40;;
65315;SDS011;51920;53.952;10.292;2022-08-27T15:50:45;21.27;;;6.10;;
65315;SDS011;51920;53.952;10.292;2022-08-27T15:53:11;6.72;;;1.90;;
65315;SDS011;51920;53.952;10.292;2022-08-27T15:55:38;4.73;;;1.30;;
65315;SDS011;51920;53.952;10.292;2022-08-27T15:58:05;5.95;;;1.40;;
65315;SDS011;51920;53.952;10.292;2022-08-27T16:00:33;6.93;;;1.70;;
65315;SDS011;51920;53.952;10.292;2022-08-27T16:03:00;7.15;;;1.60;;
65315;SDS011;51920;53.952;10.292;2022-08-27T16:05:30;6.13;;;1.63;;
65315;SDS011;51920;53.952;10.292;2022-08-27T16:07:58;6.87;;;1.70;;
65315;SDS011;51920;53.952;10.292;2022-08-27T16:10:23;6.47;;;1.75;;
65315;SDS011;51920;53.952;10.292;2022-08-27T16:12:48;7.17;;;1.73;;
65315;SDS011;51920;53.952;10.292;2022-08-27T16:15:14;7.47;;;1.70;;
65315;SDS011;51920;53.952;10.292;2022-08-27T16:17:41;6.10;;;1.90;;
65315;SDS011;51920;53.952;10.292;2022-08-27T16:20:08;7.93;;;1.73;;
65315;SDS011;51920;53.952;10.292;2022-08-27T16:22:36;8.32;;;1.85;;
65315;SDS011;51920;53.952;10.292;2022-08-27T16:25:02;5.27;;;1.53;;
65315;SDS011;51920;53.952;10.292;2022-08-27T16:27:28;11.48;;;1.90;;
65315;SDS011;51920;53.952;10.292;2022-08-27T16:29:54;7.53;;;1.60;;